createdAt,value
2022-07-27T00:01:51.704Z,96413.84
2022-07-27T00:04:20.000Z,96414.56
2022-07-27T00:06:48.287Z,96416.41
2022-07-27T00:09:16.101Z,96416.13
2022-07-27T00:11:43.123Z,96409.00
2022-07-27T00:14:09.943Z,96403.59
2022-07-27T00:16:37.010Z,96402.50
2022-07-27T00:19:04.601Z,96394.94
2022-07-27T00:21:39.978Z,96393.22
2022-07-27T00:24:12.199Z,96388.91
2022-07-27T00:26:39.085Z,96392.56
2022-07-27T00:29:06.129Z,96380.84
2022-07-27T00:31:33.114Z,96387.47
2022-07-27T00:34:00.041Z,96381.88
2022-07-27T00:36:26.962Z,96391.97
2022-07-27T00:38:53.919Z,96370.59
2022-07-27T00:41:20.770Z,96380.81
2022-07-27T00:44:00.899Z,96372.50
2022-07-27T00:46:29.054Z,96373.31
2022-07-27T00:48:56.060Z,96367.56
2022-07-27T00:51:24.662Z,96376.38
2022-07-27T00:53:55.785Z,96376.31
2022-07-27T00:56:23.165Z,96373.41
2022-07-27T00:58:53.600Z,96377.47
2022-07-27T01:01:21.510Z,96377.38
2022-07-27T01:03:48.453Z,96373.38
2022-07-27T01:06:16.608Z,96368.28
2022-07-27T01:09:14.344Z,96367.28
2022-07-27T01:11:41.684Z,96363.03
2022-07-27T01:14:09.068Z,96369.84
2022-07-27T01:16:35.960Z,96361.84
2022-07-27T01:19:02.901Z,96356.53
2022-07-27T01:21:35.178Z,96364.00
2022-07-27T01:24:02.653Z,96358.72
2022-07-27T01:26:30.129Z,96357.41
2022-07-27T01:28:59.391Z,96356.13
2022-07-27T01:31:27.213Z,96357.56
2022-07-27T01:33:54.207Z,96353.06
2022-07-27T01:36:21.069Z,96348.47
2022-07-27T01:38:48.321Z,96347.97
2022-07-27T01:41:15.149Z,96337.50
2022-07-27T01:43:42.066Z,96332.41
2022-07-27T01:46:09.155Z,96330.88
2022-07-27T01:48:36.145Z,96333.59
2022-07-27T01:51:03.017Z,96333.59
2022-07-27T01:53:29.858Z,96331.53
2022-07-27T01:55:56.690Z,96332.59
2022-07-27T01:58:23.579Z,96316.59
2022-07-27T02:00:50.738Z,96314.97
2022-07-27T02:03:17.649Z,96307.75
2022-07-27T02:05:44.528Z,96307.44
2022-07-27T02:08:11.466Z,96304.72
2022-07-27T02:10:58.448Z,96307.34
2022-07-27T02:13:26.429Z,96308.75
2022-07-27T02:15:54.633Z,96315.09
2022-07-27T02:18:33.719Z,96305.09
2022-07-27T02:21:04.640Z,96306.13
2022-07-27T02:23:31.964Z,96308.28
2022-07-27T02:25:59.173Z,96315.22
2022-07-27T02:28:25.992Z,96321.13
2022-07-27T02:30:52.935Z,96327.53
2022-07-27T02:33:20.107Z,96332.31
2022-07-27T02:35:47.074Z,96329.72
2022-07-27T02:38:13.921Z,96333.25
2022-07-27T02:40:41.151Z,96324.44
2022-07-27T02:43:07.975Z,96324.84
2022-07-27T02:45:34.852Z,96324.63
2022-07-27T02:48:01.868Z,96341.06
2022-07-27T02:50:28.745Z,96338.16
2022-07-27T02:52:55.674Z,96350.19
2022-07-27T02:55:22.528Z,96343.19
2022-07-27T02:57:49.362Z,96342.09
2022-07-27T03:00:16.894Z,96343.66
2022-07-27T03:02:48.482Z,96350.09
2022-07-27T03:05:15.738Z,96353.31
2022-07-27T03:07:42.551Z,96349.59
2022-07-27T03:10:09.454Z,96354.94
2022-07-27T03:12:36.356Z,96344.09
2022-07-27T03:15:03.928Z,96342.28
2022-07-27T03:17:30.772Z,96349.28
2022-07-27T03:19:57.600Z,96346.09
2022-07-27T03:22:24.417Z,96346.75
2022-07-27T03:24:51.287Z,96340.97
2022-07-27T03:27:18.167Z,96338.81
2022-07-27T03:29:45.825Z,96343.66
2022-07-27T03:32:12.728Z,96336.59
2022-07-27T03:34:39.546Z,96349.16
2022-07-27T03:37:06.379Z,96347.84
2022-07-27T03:39:33.230Z,96355.91
2022-07-27T03:42:00.129Z,96346.88
2022-07-27T03:44:27.001Z,96348.53
2022-07-27T03:46:53.867Z,96352.78
2022-07-27T03:49:20.815Z,96344.25
2022-07-27T03:51:47.733Z,96340.03
2022-07-27T03:54:14.656Z,96331.53
2022-07-27T03:56:41.569Z,96343.03
2022-07-27T03:59:08.730Z,96346.34
2022-07-27T04:01:36.023Z,96335.34
2022-07-27T04:04:02.902Z,96333.50
2022-07-27T04:06:29.704Z,96343.16
2022-07-27T04:09:07.830Z,96337.41
2022-07-27T04:11:37.790Z,96334.53
2022-07-27T04:14:12.833Z,96332.13
2022-07-27T04:16:41.327Z,96329.50
2022-07-27T04:19:08.616Z,96333.38
2022-07-27T04:21:35.642Z,96337.19
2022-07-27T04:24:02.894Z,96326.28
2022-07-27T04:26:29.802Z,96335.19
2022-07-27T04:28:56.735Z,96325.28
2022-07-27T04:31:24.274Z,96326.66
2022-07-27T04:33:51.430Z,96320.81
2022-07-27T04:36:18.456Z,96328.78
2022-07-27T04:38:45.304Z,96330.53
2022-07-27T04:41:12.832Z,96327.38
2022-07-27T04:43:39.856Z,96331.13
2022-07-27T04:46:09.527Z,96334.38
2022-07-27T04:48:40.123Z,96335.88
2022-07-27T04:51:08.316Z,96341.28
2022-07-27T04:53:36.950Z,96336.78
2022-07-27T04:56:20.245Z,96333.22
2022-07-27T04:58:47.609Z,96349.00
2022-07-27T05:01:14.685Z,96344.91
2022-07-27T05:03:43.064Z,96349.50
2022-07-27T05:06:10.063Z,96353.59
2022-07-27T05:08:36.929Z,96352.06
2022-07-27T05:11:03.810Z,96359.03
2022-07-27T05:13:33.119Z,96358.47
2022-07-27T05:15:59.985Z,96362.16
2022-07-27T05:18:26.865Z,96357.41
2022-07-27T05:20:53.819Z,96360.72
2022-07-27T05:23:20.652Z,96372.28
2022-07-27T05:25:47.564Z,96366.22
2022-07-27T05:28:14.533Z,96366.50
2022-07-27T05:30:41.444Z,96371.06
2022-07-27T05:33:08.267Z,96369.53
2022-07-27T05:35:35.092Z,96372.75
2022-07-27T05:38:01.898Z,96375.38
2022-07-27T05:40:28.968Z,96372.75
2022-07-27T05:42:56.269Z,96379.00
2022-07-27T05:45:23.335Z,96371.31
2022-07-27T05:47:50.224Z,96364.13
2022-07-27T05:50:18.367Z,96373.47
2022-07-27T05:52:45.211Z,96374.53
2022-07-27T05:55:12.746Z,96372.13
2022-07-27T05:57:43.824Z,96381.53
2022-07-27T06:00:12.054Z,96387.38
2022-07-27T06:02:39.878Z,96386.31
2022-07-27T06:05:11.801Z,96372.94
2022-07-27T06:07:59.760Z,96373.41
2022-07-27T06:10:32.220Z,96376.13
2022-07-27T06:13:00.430Z,96378.75
2022-07-27T06:15:27.513Z,96378.69
2022-07-27T06:17:54.709Z,96372.09
2022-07-27T06:20:23.662Z,96368.66
2022-07-27T06:22:54.192Z,96374.47
2022-07-27T06:25:22.934Z,96373.06
2022-07-27T06:28:00.765Z,96361.25
2022-07-27T06:30:27.697Z,96375.19
2022-07-27T06:32:54.558Z,96374.91
2022-07-27T06:35:23.338Z,96371.94
2022-07-27T06:37:52.776Z,96368.72
2022-07-27T06:40:20.638Z,96365.47
2022-07-27T06:42:48.435Z,96362.44
2022-07-27T06:45:15.512Z,96363.44
2022-07-27T06:47:49.031Z,96367.09
2022-07-27T06:50:18.830Z,96371.94
2022-07-27T06:52:46.798Z,96365.97
2022-07-27T06:55:14.337Z,96371.16
2022-07-27T06:57:42.737Z,96372.56
2022-07-27T07:00:10.829Z,96375.50
2022-07-27T07:02:39.689Z,96368.44
2022-07-27T07:05:07.000Z,96369.31
2022-07-27T07:07:35.064Z,96368.94
2022-07-27T07:10:02.133Z,96375.25
2022-07-27T07:12:28.976Z,96371.69
2022-07-27T07:14:55.796Z,96354.97
2022-07-27T07:17:22.625Z,96350.00
2022-07-27T07:19:49.512Z,96350.91
2022-07-27T07:22:16.326Z,96347.25
2022-07-27T07:24:43.160Z,96354.41
2022-07-27T07:27:10.003Z,96350.84
2022-07-27T07:29:36.825Z,96357.63
2022-07-27T07:32:03.882Z,96352.19
2022-07-27T07:34:30.724Z,96357.63
2022-07-27T07:36:58.127Z,96353.97
2022-07-27T07:39:30.859Z,96363.69
2022-07-27T07:41:58.560Z,96359.94
2022-07-27T07:44:26.234Z,96366.38
2022-07-27T07:46:53.109Z,96363.59
2022-07-27T07:49:37.721Z,96362.69
2022-07-27T07:52:07.865Z,96361.94
2022-07-27T07:54:34.909Z,96367.06
2022-07-27T07:57:01.902Z,96364.69
2022-07-27T07:59:28.847Z,96368.00
2022-07-27T08:01:55.733Z,96358.41
2022-07-27T08:04:22.590Z,96360.81
2022-07-27T08:06:49.474Z,96362.28
2022-07-27T08:09:21.327Z,96367.19
2022-07-27T08:11:48.214Z,96358.19
2022-07-27T08:14:15.076Z,96363.38
2022-07-27T08:16:42.011Z,96360.16
2022-07-27T08:19:09.637Z,96365.38
2022-07-27T08:21:36.640Z,96365.56
2022-07-27T08:24:03.679Z,96357.34
2022-07-27T08:26:30.575Z,96365.22
2022-07-27T08:28:57.400Z,96368.69
2022-07-27T08:31:51.329Z,96360.72
2022-07-27T08:34:13.210Z,96367.28
2022-07-27T08:36:40.056Z,96359.66
2022-07-27T08:39:08.531Z,96363.72
2022-07-27T08:41:42.991Z,96380.31
2022-07-27T08:44:14.158Z,96381.72
2022-07-27T08:46:45.573Z,96374.66
2022-07-27T08:49:14.120Z,96369.22
2022-07-27T08:51:46.846Z,96370.47
2022-07-27T08:54:14.328Z,96356.72
2022-07-27T08:56:41.418Z,96365.22
2022-07-27T08:59:08.886Z,96365.69
2022-07-27T09:01:36.509Z,96365.13
2022-07-27T09:04:03.493Z,96362.44
2022-07-27T09:06:54.371Z,96358.34
2022-07-27T09:09:22.937Z,96355.66
2022-07-27T09:12:09.217Z,96362.94
2022-07-27T09:14:40.793Z,96358.47
2022-07-27T09:20:19.153Z,96370.50
2022-07-27T09:22:55.073Z,96362.47
2022-07-27T09:26:00.796Z,96363.06
2022-07-27T09:28:30.058Z,96362.31
2022-07-27T09:31:13.360Z,96376.75
2022-07-27T09:33:50.574Z,96368.56
2022-07-27T09:36:19.626Z,96368.22
2022-07-27T09:39:06.798Z,96368.25
2022-07-27T09:41:52.913Z,96370.91
2022-07-27T09:44:53.617Z,96368.97
2022-07-27T09:47:28.195Z,96362.31
2022-07-27T09:50:18.571Z,96375.56
2022-07-27T09:52:46.702Z,96372.06
2022-07-27T09:55:14.227Z,96363.53
2022-07-27T09:57:58.527Z,96363.41
2022-07-27T10:00:26.892Z,96365.03
2022-07-27T10:02:55.023Z,96362.31
2022-07-27T10:05:23.012Z,96361.88
2022-07-27T10:07:52.457Z,96368.34
2022-07-27T10:10:21.002Z,96368.94
2022-07-27T10:12:54.236Z,96366.34
2022-07-27T10:15:23.664Z,96362.59
2022-07-27T10:18:01.972Z,96369.75
2022-07-27T10:20:29.880Z,96373.47
2022-07-27T10:22:58.813Z,96369.94
2022-07-27T10:25:32.466Z,96363.47
2022-07-27T10:28:17.448Z,96374.50
2022-07-27T10:30:48.146Z,96372.63
2022-07-27T10:33:46.577Z,96367.59
2022-07-27T10:36:31.389Z,96369.63
2022-07-27T10:39:02.154Z,96369.63
2022-07-27T10:41:39.927Z,96366.63
2022-07-27T10:44:18.503Z,96373.13
2022-07-27T10:47:03.810Z,96368.22
2022-07-27T10:49:40.781Z,96363.72
2022-07-27T10:52:41.362Z,96364.94
2022-07-27T10:55:09.164Z,96363.34
2022-07-27T10:57:38.621Z,96368.53
2022-07-27T11:00:13.695Z,96372.56
2022-07-27T11:02:43.569Z,96362.16
2022-07-27T11:10:49.475Z,96369.34
2022-07-27T11:13:23.158Z,96370.19
2022-07-27T11:16:09.811Z,96370.16
2022-07-27T11:19:03.663Z,96374.88
2022-07-27T11:21:37.959Z,96371.19
2022-07-27T11:24:17.436Z,96369.56
2022-07-27T11:26:47.706Z,96372.59
2022-07-27T11:29:17.043Z,96377.75
2022-07-27T11:31:56.324Z,96379.38
2022-07-27T11:34:36.557Z,96374.28
2022-07-27T11:37:13.981Z,96371.69
2022-07-27T11:39:59.680Z,96372.38
2022-07-27T11:42:40.206Z,96362.03
2022-07-27T11:45:07.781Z,96366.44
2022-07-27T11:47:35.762Z,96366.13
2022-07-27T11:50:11.934Z,96360.53
2022-07-27T11:52:39.110Z,96358.28
2022-07-27T11:55:07.839Z,96353.25
2022-07-27T11:57:36.035Z,96354.38
2022-07-27T12:00:05.308Z,96348.47
2022-07-27T12:02:32.180Z,96350.56
2022-07-27T12:05:02.817Z,96352.94
2022-07-27T12:07:32.431Z,96355.78
2022-07-27T12:10:04.223Z,96354.44
2022-07-27T12:12:32.663Z,96361.31
2022-07-27T12:18:06.542Z,96361.34
2022-07-27T12:20:35.700Z,96354.88
2022-07-27T12:23:08.216Z,96351.69
2022-07-27T12:25:36.244Z,96343.69
2022-07-27T12:28:17.705Z,96346.34
2022-07-27T12:30:51.130Z,96343.41
2022-07-27T12:33:39.577Z,96343.03
2022-07-27T12:36:08.670Z,96346.84
2022-07-27T12:38:51.170Z,96349.25
2022-07-27T12:41:30.835Z,96353.88
2022-07-27T12:44:12.353Z,96349.25
2022-07-27T12:46:59.366Z,96348.13
2022-07-27T12:49:28.645Z,96351.34
2022-07-27T12:52:06.765Z,96349.38
2022-07-27T12:54:34.196Z,96345.66
2022-07-27T12:57:01.062Z,96343.06
2022-07-27T12:59:27.893Z,96344.59
2022-07-27T13:01:55.969Z,96340.94
2022-07-27T13:04:23.697Z,96348.63
2022-07-27T13:06:50.559Z,96343.22
2022-07-27T13:09:17.779Z,96342.59
2022-07-27T13:11:47.911Z,96343.06
2022-07-27T13:14:15.523Z,96344.66
2022-07-27T13:16:42.503Z,96340.41
2022-07-27T13:19:09.773Z,96341.56
2022-07-27T13:21:36.880Z,96341.00
2022-07-27T13:24:04.058Z,96336.13
2022-07-27T13:26:30.901Z,96343.06
2022-07-27T13:28:57.789Z,96344.06
2022-07-27T13:31:24.651Z,96344.91
2022-07-27T13:33:52.121Z,96349.63
2022-07-27T13:36:19.065Z,96342.78
2022-07-27T13:38:46.275Z,96346.28
2022-07-27T13:41:13.569Z,96349.38
2022-07-27T13:43:40.421Z,96345.34
2022-07-27T13:46:08.506Z,96351.28
2022-07-27T13:48:35.560Z,96351.19
2022-07-27T13:51:03.480Z,96346.50
2022-07-27T13:53:30.650Z,96338.81
2022-07-27T13:55:57.570Z,96343.03
2022-07-27T13:58:24.514Z,96342.75
2022-07-27T14:00:51.715Z,96335.63
2022-07-27T14:03:19.399Z,96344.19
2022-07-27T14:05:49.514Z,96337.22
2022-07-27T14:08:18.648Z,96335.78
2022-07-27T14:10:45.581Z,96332.72
2022-07-27T14:13:15.582Z,96334.97
2022-07-27T14:15:50.628Z,96335.66
2022-07-27T14:18:22.265Z,96324.97
2022-07-27T14:20:49.459Z,96319.56
2022-07-27T14:23:16.286Z,96321.88
2022-07-27T14:25:43.133Z,96328.84
2022-07-27T14:28:09.969Z,96330.47
2022-07-27T14:30:37.077Z,96321.44
2022-07-27T14:33:03.977Z,96326.31
2022-07-27T14:35:30.900Z,96322.50
2022-07-27T14:38:00.145Z,96322.06
2022-07-27T14:40:27.581Z,96323.38
2022-07-27T14:42:54.502Z,96318.31
2022-07-27T14:45:21.442Z,96310.69
2022-07-27T14:47:48.353Z,96318.34
2022-07-27T14:50:15.350Z,96313.19
2022-07-27T14:52:42.265Z,96301.63
2022-07-27T14:55:09.839Z,96301.97
2022-07-27T14:57:37.055Z,96305.25
2022-07-27T15:00:10.514Z,96304.22
2022-07-27T15:02:38.463Z,96308.78
2022-07-27T15:05:07.002Z,96299.31
2022-07-27T15:07:34.885Z,96301.41
2022-07-27T15:10:03.149Z,96301.50
2022-07-27T15:12:31.107Z,96294.53
2022-07-27T15:15:00.347Z,96299.34
2022-07-27T15:17:27.358Z,96310.00
2022-07-27T15:19:54.226Z,96311.81
2022-07-27T15:22:21.096Z,96298.75
2022-07-27T15:24:52.773Z,96293.97
2022-07-27T15:27:20.388Z,96291.41
2022-07-27T15:29:47.241Z,96297.22
2022-07-27T15:32:14.653Z,96298.00
2022-07-27T15:34:43.699Z,96299.69
2022-07-27T15:37:10.565Z,96297.50
2022-07-27T15:39:39.610Z,96296.38
2022-07-27T15:42:08.333Z,96297.91
2022-07-27T15:44:36.343Z,96290.97
2022-07-27T15:47:04.109Z,96288.91
2022-07-27T15:49:31.143Z,96289.41
2022-07-27T15:51:58.072Z,96291.47
2022-07-27T15:54:24.910Z,96287.88
2022-07-27T15:56:51.984Z,96284.31
2022-07-27T15:59:19.546Z,96286.97
2022-07-27T16:01:48.242Z,96290.06
2022-07-27T16:04:15.534Z,96282.75
2022-07-27T16:06:42.587Z,96284.28
2022-07-27T16:09:09.907Z,96282.19
2022-07-27T16:11:37.967Z,96285.25
2022-07-27T16:14:04.910Z,96287.13
2022-07-27T16:16:31.873Z,96282.63
2022-07-27T16:19:12.952Z,96287.25
2022-07-27T16:21:54.750Z,96282.75
2022-07-27T16:24:25.031Z,96275.78
2022-07-27T16:26:52.411Z,96277.53
2022-07-27T16:29:19.400Z,96278.16
2022-07-27T16:31:46.378Z,96270.81
2022-07-27T16:34:13.293Z,96272.53
2022-07-27T16:36:40.194Z,96275.75
2022-07-27T16:39:07.825Z,96268.56
2022-07-27T16:41:34.661Z,96271.25
2022-07-27T16:44:01.476Z,96278.72
2022-07-27T16:46:28.353Z,96283.72
2022-07-27T16:48:55.250Z,96275.50
2022-07-27T16:51:22.361Z,96282.03
2022-07-27T16:53:49.280Z,96283.28
2022-07-27T16:56:17.423Z,96286.66
2022-07-27T16:58:44.970Z,96276.97
2022-07-27T17:01:21.900Z,96282.13
2022-07-27T17:03:54.755Z,96279.72
2022-07-27T17:06:21.712Z,96278.19
2022-07-27T17:08:48.711Z,96275.94
2022-07-27T17:11:17.577Z,96274.72
2022-07-27T17:13:49.352Z,96284.41
2022-07-27T17:16:16.765Z,96288.91
2022-07-27T17:18:43.899Z,96285.41
2022-07-27T17:21:13.853Z,96285.41
2022-07-27T17:23:42.272Z,96288.88
2022-07-27T17:26:11.288Z,96293.03
2022-07-27T17:28:40.001Z,96289.97
2022-07-27T17:31:12.597Z,96291.88
2022-07-27T17:33:40.589Z,96287.44
2022-07-27T17:36:13.967Z,96294.22
2022-07-27T17:38:47.528Z,96295.78
2022-07-27T17:41:23.513Z,96294.81
2022-07-27T17:43:51.941Z,96290.28
2022-07-27T17:46:18.918Z,96292.84
2022-07-27T17:48:45.811Z,96297.94
2022-07-27T17:51:12.767Z,96310.22
2022-07-27T17:53:39.672Z,96297.59
2022-07-27T17:56:08.101Z,96312.66
2022-07-27T17:58:34.940Z,96298.47
2022-07-27T18:01:01.795Z,96309.53
2022-07-27T18:03:28.699Z,96309.47
2022-07-27T18:05:55.670Z,96308.25
2022-07-27T18:08:22.701Z,96309.28
2022-07-27T18:10:51.378Z,96316.56
2022-07-27T18:13:18.479Z,96313.78
2022-07-27T18:15:48.162Z,96314.00
2022-07-27T18:18:19.736Z,96314.28
2022-07-27T18:20:48.170Z,96326.28
2022-07-27T18:23:16.244Z,96332.22
2022-07-27T18:25:44.910Z,96324.75
2022-07-27T18:28:13.951Z,96324.13
2022-07-27T18:30:40.899Z,96331.59
2022-07-27T18:33:07.776Z,96334.75
2022-07-27T18:35:35.066Z,96332.69
2022-07-27T18:38:02.097Z,96345.47
2022-07-27T18:40:28.957Z,96345.91
2022-07-27T18:42:55.787Z,96348.69
2022-07-27T18:45:22.660Z,96344.75
2022-07-27T18:48:01.278Z,96347.28
2022-07-27T18:50:28.358Z,96349.47
2022-07-27T18:52:56.933Z,96359.25
2022-07-27T18:55:25.126Z,96359.56
2022-07-27T18:57:55.357Z,96364.25
2022-07-27T19:00:24.413Z,96370.28
2022-07-27T19:02:51.819Z,96375.88
2022-07-27T19:05:32.789Z,96378.16
2022-07-27T19:08:12.840Z,96384.41
2022-07-27T19:10:42.314Z,96389.03
2022-07-27T19:13:10.450Z,96393.44
2022-07-27T19:15:37.843Z,96390.72
2022-07-27T19:18:06.462Z,96402.84
2022-07-27T19:20:33.713Z,96405.25
2022-07-27T19:23:00.821Z,96406.44
2022-07-27T19:25:30.152Z,96400.66
2022-07-27T19:27:57.443Z,96413.09
2022-07-27T19:30:24.499Z,96416.66
2022-07-27T19:32:51.818Z,96411.13
2022-07-27T19:35:18.705Z,96423.50
2022-07-27T19:37:45.540Z,96420.88
2022-07-27T19:40:43.514Z,96416.59
2022-07-27T19:42:59.820Z,96411.81
2022-07-27T19:45:26.727Z,96430.06
2022-07-27T19:47:53.601Z,96426.84
2022-07-27T19:50:20.516Z,96419.34
2022-07-27T19:52:47.399Z,96435.72
2022-07-27T19:55:15.466Z,96429.09
2022-07-27T19:57:42.418Z,96435.56
2022-07-27T20:00:11.116Z,96437.41
2022-07-27T20:02:38.145Z,96436.66
2022-07-27T20:05:05.659Z,96441.44
2022-07-27T20:07:32.535Z,96436.66
2022-07-27T20:09:59.374Z,96444.16
2022-07-27T20:12:26.258Z,96446.59
2022-07-27T20:14:53.218Z,96442.84
2022-07-27T20:17:20.039Z,96457.06
2022-07-27T20:19:47.071Z,96451.69
2022-07-27T20:22:14.006Z,96462.66
2022-07-27T20:24:40.870Z,96456.00
2022-07-27T20:27:07.766Z,96458.63
2022-07-27T20:29:34.812Z,96456.22
2022-07-27T20:32:01.900Z,96458.63
2022-07-27T20:34:28.778Z,96458.63
2022-07-27T20:36:56.270Z,96462.34
2022-07-27T20:39:25.274Z,96465.00
2022-07-27T20:41:52.592Z,96470.91
2022-07-27T20:44:20.890Z,96463.94
2022-07-27T20:46:48.145Z,96471.16
2022-07-27T20:49:16.884Z,96463.38
2022-07-27T20:51:44.537Z,96462.84
2022-07-27T20:54:11.496Z,96464.44
2022-07-27T20:56:38.350Z,96472.41
2022-07-27T20:59:07.525Z,96464.84
2022-07-27T21:01:35.818Z,96466.19
2022-07-27T21:04:02.737Z,96468.56
2022-07-27T21:06:29.562Z,96468.56
2022-07-27T21:08:56.486Z,96464.25
2022-07-27T21:11:23.392Z,96472.50
2022-07-27T21:13:50.257Z,96476.50
2022-07-27T21:16:17.126Z,96481.84
2022-07-27T21:18:43.978Z,96491.91
2022-07-27T21:21:10.796Z,96484.00
2022-07-27T21:23:56.493Z,96484.50
2022-07-27T21:26:23.326Z,96481.00
2022-07-27T21:28:50.195Z,96486.91
2022-07-27T21:31:17.474Z,96491.44
2022-07-27T21:33:44.383Z,96486.34
2022-07-27T21:36:11.263Z,96487.69
2022-07-27T21:38:38.086Z,96494.03
2022-07-27T21:41:05.721Z,96487.09
2022-07-27T21:43:33.453Z,96483.91
2022-07-27T21:46:00.399Z,96488.13
2022-07-27T21:48:27.369Z,96488.34
2022-07-27T21:50:54.206Z,96481.50
2022-07-27T21:53:21.039Z,96494.22
2022-07-27T21:55:48.444Z,96482.69
2022-07-27T21:58:15.450Z,96477.28
2022-07-27T22:00:42.444Z,96476.72
2022-07-27T22:03:09.476Z,96489.50
2022-07-27T22:05:36.947Z,96483.56
2022-07-27T22:08:04.052Z,96483.28
2022-07-27T22:10:32.178Z,96483.06
2022-07-27T22:12:59.236Z,96492.13
2022-07-27T22:15:27.205Z,96481.91
2022-07-27T22:17:54.470Z,96486.41
2022-07-27T22:20:22.565Z,96485.53
2022-07-27T22:22:50.361Z,96492.28
2022-07-27T22:25:18.693Z,96489.75
2022-07-27T22:27:45.537Z,96490.25
2022-07-27T22:30:12.464Z,96490.16
2022-07-27T22:32:39.305Z,96496.84
2022-07-27T22:35:07.032Z,96491.25
2022-07-27T22:37:33.890Z,96501.28
2022-07-27T22:40:00.740Z,96501.28
2022-07-27T22:42:28.163Z,96500.66
2022-07-27T22:44:55.135Z,96497.44
2022-07-27T22:47:22.236Z,96495.34
2022-07-27T22:49:49.380Z,96487.38
2022-07-27T22:52:16.234Z,96494.19
2022-07-27T22:54:43.229Z,96487.75
2022-07-27T22:57:10.425Z,96485.53
2022-07-27T22:59:37.497Z,96481.25
2022-07-27T23:02:05.827Z,96481.50
2022-07-27T23:04:32.869Z,96488.63
2022-07-27T23:07:00.133Z,96489.09
2022-07-27T23:09:27.011Z,96496.28
2022-07-27T23:11:54.947Z,96488.53
2022-07-27T23:14:25.697Z,96490.09
2022-07-27T23:16:52.882Z,96490.28
2022-07-27T23:19:19.763Z,96489.53
2022-07-27T23:21:46.593Z,96496.91
2022-07-27T23:24:15.009Z,96485.81
2022-07-27T23:26:43.213Z,96470.81
2022-07-27T23:29:10.158Z,96478.28
2022-07-27T23:31:37.059Z,96476.63
2022-07-27T23:34:04.069Z,96479.97
2022-07-27T23:36:30.958Z,96474.63
2022-07-27T23:38:57.929Z,96464.28
2022-07-27T23:41:25.065Z,96462.16
2022-07-27T23:43:51.926Z,96467.69
2022-07-27T23:46:19.044Z,96460.69
2022-07-27T23:48:45.980Z,96467.75
2022-07-27T23:51:20.202Z,96457.44
2022-07-27T23:53:47.749Z,96461.16
2022-07-27T23:56:15.043Z,96464.16
2022-07-27T23:58:41.946Z,96464.13
